Allegany Spring, Virginia
Current Conditions -  °F | °C
As of 11:55 PM on Friday 19 Dec 2014 (Local Time) from KBCB Reporting Station
Clear Clear  
Wind Chill: 27°   Ceiling: Unl
Heat Index: 27°   Visibility: 10mi
Dew Point: 22°   Wind: 0mph
Humidity: 81%   Direction: NA
Pressure: 30.2"   Gusts: NA
Location:  37.1336°N, 80.2545°W
Report Text: KBCB 200455Z AUTO 00000KT 10SM CLR M03/M06 A3020 RMK AO2 T10271056 400361030
Loading
Personal Weather Stations






























Interactive Weather Map New forecast layout! Learn more

10-Day Weather Forecast

Advertisements
Track Severe Weather on mobile